Time;durP1;ratioP1;P1;durP2;ratioP2;P2;SDS_P1;SDS_P2;PMS_P1;PMS_P2;Temp;Humidity;BMP_temperature;BMP_pressure;BME280_temperature;BME280_humidity;BME280_pressure;Samples;Min_cycle;Max_cycle;Signal;HPM_P1;HPM_P2
2022/06/10 07:15:05;;;;;;;4.13;1.10;;;;;;;;;;5067053;28;20383;-70
2022/06/10 07:17:32;;;;;;;3.55;1.13;;;;;;;;;;5070010;28;20060;-72
2022/06/10 07:19:59;;;;;;;3.85;1.20;;;;;;;;;;5069571;28;20063;-72
2022/06/10 07:22:26;;;;;;;5.80;1.10;;;;;;;;;;5078113;28;20482;-72
2022/06/10 07:24:53;;;;;;;3.30;0.98;;;;;;;;;;5071061;28;20043;-72
2022/06/10 07:27:19;;;;;;;2.20;0.95;;;;;;;;;;5070753;28;20082;-72
2022/06/10 07:29:45;;;;;;;4.35;1.10;;;;;;;;;;5068148;28;20380;-71
2022/06/10 07:32:11;;;;;;;2.40;0.90;;;;;;;;;;5071085;28;20119;-71
2022/06/10 07:34:37;;;;;;;2.22;0.82;;;;;;;;;;5072688;28;20540;-71
2022/06/10 07:37:04;;;;;;;2.90;0.93;;;;;;;;;;5073678;28;20492;-71
2022/06/10 07:39:32;;;;;;;2.72;1.02;;;;;;;;;;5070737;28;20033;-71
2022/06/10 07:42:00;;;;;;;12.00;1.90;;;;;;;;;;5070720;28;20043;-71
2022/06/10 07:44:27;;;;;;;2.42;0.90;;;;;;;;;;5069591;28;20067;-71
2022/06/10 07:46:54;;;;;;;4.75;1.10;;;;;;;;;;5071221;28;20044;-71
2022/06/10 07:49:20;;;;;;;2.17;0.70;;;;;;;;;;5070103;28;20064;-71
2022/06/10 07:51:47;;;;;;;5.05;1.00;;;;;;;;;;5069235;28;20028;-71
2022/06/10 07:54:13;;;;;;;4.75;1.17;;;;;;;;;;5072338;28;20145;-71
2022/06/10 07:56:40;;;;;;;1.65;0.80;;;;;;;;;;5078395;28;20128;-71
2022/06/10 07:59:06;;;;;;;6.38;1.27;;;;;;;;;;5070534;28;20036;-71
2022/06/10 08:01:35;;;;;;;5.70;0.95;;;;;;;;;;5071158;28;20036;-71
2022/06/10 08:04:02;;;;;;;2.83;0.80;;;;;;;;;;5069799;28;20166;-71
2022/06/10 08:06:29;;;;;;;3.35;1.00;;;;;;;;;;5067016;28;20047;-71
2022/06/10 08:08:55;;;;;;;3.50;1.10;;;;;;;;;;5078397;28;20517;-71
2022/06/10 08:11:22;;;;;;;3.55;1.08;;;;;;;;;;5069966;28;20028;-72
2022/06/10 08:13:48;;;;;;;4.95;1.00;;;;;;;;;;5070441;28;20044;-70
2022/06/10 08:16:15;;;;;;;4.03;1.10;;;;;;;;;;5071040;28;20097;-71
2022/06/10 08:18:41;;;;;;;6.60;1.27;;;;;;;;;;5070113;28;20071;-71
2022/06/10 08:23:53;;;;;;;5.05;0.88;;;;;;;;;;5069152;28;20071;-71
2022/06/10 08:26:20;;;;;;;4.10;1.20;;;;;;;;;;5056619;28;20068;-71
2022/06/10 08:28:50;;;;;;;3.85;0.90;;;;;;;;;;5060201;28;20037;-71
2022/06/10 08:31:16;;;;;;;3.47;0.88;;;;;;;;;;5077767;28;20044;-72
2022/06/10 08:33:42;;;;;;;3.50;1.00;;;;;;;;;;5077422;28;20040;-69
2022/06/10 08:36:09;;;;;;;2.72;0.93;;;;;;;;;;5061747;28;20048;-71
2022/06/10 08:38:36;;;;;;;8.27;1.02;;;;;;;;;;5071284;28;20040;-71
2022/06/10 08:41:07;;;;;;;3.53;1.13;;;;;;;;;;5068395;28;20083;-70
2022/06/10 08:43:42;;;;;;;4.07;0.85;;;;;;;;;;5055619;28;20086;-71
2022/06/10 08:46:28;;;;;;;3.03;1.00;;;;;;;;;;5055829;28;20033;-71
2022/06/10 08:49:00;;;;;;;4.15;0.80;;;;;;;;;;5055578;28;20041;-71
2022/06/10 08:51:55;;;;;;;3.40;0.98;;;;;;;;;;5056427;28;20098;-71
2022/06/10 08:54:44;;;;;;;1.90;0.60;;;;;;;;;;5013808;28;20054;-72
2022/06/10 08:59:20;;;;;;;2.60;0.90;;;;;;;;;;5106308;27;20474;-71
2022/06/10 09:01:46;;;;;;;3.10;0.70;;;;;;;;;;5111416;28;20031;-71
2022/06/10 09:04:12;;;;;;;2.88;1.08;;;;;;;;;;5111912;28;20062;-71
2022/06/10 09:06:51;;;;;;;5.35;1.13;;;;;;;;;;5111367;28;20085;-76
2022/06/10 09:09:18;;;;;;;5.47;0.90;;;;;;;;;;5107228;28;20499;-71
2022/06/10 09:11:44;;;;;;;6.95;1.10;;;;;;;;;;5110743;28;20049;-71
2022/06/10 09:14:18;;;;;;;1.80;0.70;;;;;;;;;;5114701;28;20506;-72
2022/06/10 09:16:56;;;;;;;2.08;0.80;;;;;;;;;;5111313;28;20070;-72
2022/06/10 09:19:41;;;;;;;6.65;0.90;;;;;;;;;;5106322;28;20126;-71
2022/06/10 09:22:24;;;;;;;2.05;0.80;;;;;;;;;;5110152;28;20039;-73
2022/06/10 09:24:50;;;;;;;5.40;1.00;;;;;;;;;;5109854;28;20536;-71
2022/06/10 09:27:30;;;;;;;3.38;1.00;;;;;;;;;;5112475;28;20043;-71
2022/06/10 09:29:57;;;;;;;2.25;0.60;;;;;;;;;;5110320;28;20417;-72
2022/06/10 09:32:37;;;;;;;3.45;1.10;;;;;;;;;;5127986;28;20118;-71
2022/06/10 09:35:10;;;;;;;33.17;4.93;;;;;;;;;;5118636;28;20039;-71
2022/06/10 09:37:55;;;;;;;14.65;1.92;;;;;;;;;;5111874;28;20050;-71
2022/06/10 09:40:37;;;;;;;9.75;1.83;;;;;;;;;;5109685;28;20132;-71
2022/06/10 09:43:37;;;;;;;11.05;1.45;;;;;;;;;;5111319;28;20153;-70
2022/06/10 09:46:15;;;;;;;11.75;1.52;;;;;;;;;;5071857;28;20028;-71
2022/06/10 09:48:45;;;;;;;14.27;1.70;;;;;;;;;;5112048;28;20039;-71
2022/06/10 09:51:11;;;;;;;3.22;1.00;;;;;;;;;;5122395;28;20028;-71
2022/06/10 09:54:00;;;;;;;2.05;1.00;;;;;;;;;;5112632;28;20035;-70
2022/06/10 09:56:45;;;;;;;4.45;1.50;;;;;;;;;;5113226;28;20035;-71
2022/06/10 09:59:11;;;;;;;3.13;1.27;;;;;;;;;;5110999;28;20139;-70
2022/06/10 10:01:56;;;;;;;2.97;1.35;;;;;;;;;;5110807;28;20036;-70
2022/06/10 10:04:28;;;;;;;6.03;1.33;;;;;;;;;;5105326;28;20111;-70
2022/06/10 10:06:54;;;;;;;8.50;2.50;;;;;;;;;;5110782;28;20093;-70
2022/06/10 10:09:29;;;;;;;12.60;1.88;;;;;;;;;;5111497;28;20040;-70
2022/06/10 10:11:55;;;;;;;4.47;1.60;;;;;;;;;;5096738;28;20067;-70
2022/06/10 10:14:21;;;;;;;4.25;2.20;;;;;;;;;;5102984;28;20035;-70
2022/06/10 10:16:59;;;;;;;8.38;1.90;;;;;;;;;;5109578;28;20566;-70
2022/06/10 10:19:41;;;;;;;7.93;2.15;;;;;;;;;;5099430;28;20036;-70
2022/06/10 10:22:16;;;;;;;5.45;2.33;;;;;;;;;;5107959;28;20028;-71
2022/06/10 10:24:44;;;;;;;4.13;2.13;;;;;;;;;;5106110;28;20046;-70
2022/06/10 10:27:15;;;;;;;7.13;2.83;;;;;;;;;;5104158;28;20040;-70
2022/06/10 10:29:43;;;;;;;5.55;2.85;;;;;;;;;;5094669;28;20478;-70
2022/06/10 10:32:12;;;;;;;4.70;2.40;;;;;;;;;;5094575;28;20024;-70
2022/06/10 10:34:39;;;;;;;5.95;3.58;;;;;;;;;;5095199;28;20107;-70
2022/06/10 10:37:18;;;;;;;6.82;3.35;;;;;;;;;;5096029;28;20566;-70
2022/06/10 10:39:49;;;;;;;5.95;4.10;;;;;;;;;;5095491;28;20514;-70
2022/06/10 10:42:23;;;;;;;7.72;4.50;;;;;;;;;;5095944;28;20040;-70
2022/06/10 10:45:04;;;;;;;9.25;4.50;;;;;;;;;;5096447;28;20115;-70
2022/06/10 10:47:30;;;;;;;10.27;4.30;;;;;;;;;;5096719;28;20051;-70
2022/06/10 10:49:56;;;;;;;8.32;5.53;;;;;;;;;;5095481;28;20040;-70
2022/06/10 10:52:27;;;;;;;7.97;5.85;;;;;;;;;;5096135;28;20067;-70
2022/06/10 10:55:00;;;;;;;10.10;6.90;;;;;;;;;;5095151;28;20047;-70
2022/06/10 10:57:34;;;;;;;12.50;7.15;;;;;;;;;;5095790;28;20113;-70
2022/06/10 11:00:15;;;;;;;9.50;7.30;;;;;;;;;;5095844;28;20043;-70
2022/06/10 11:02:41;;;;;;;12.50;8.55;;;;;;;;;;5095726;28;20062;-70
2022/06/10 11:05:17;;;;;;;13.45;10.23;;;;;;;;;;5094023;28;20039;-70
2022/06/10 11:07:43;;;;;;;7.82;3.78;;;;;;;;;;5095254;28;20074;-70
2022/06/10 11:10:18;;;;;;;7.45;2.65;;;;;;;;;;5105596;28;20107;-70
2022/06/10 11:12:44;;;;;;;4.10;1.50;;;;;;;;;;5108570;28;20058;-70
2022/06/10 11:15:27;;;;;;;4.40;2.58;;;;;;;;;;5095991;28;20521;-70
2022/06/10 11:17:53;;;;;;;8.52;5.13;;;;;;;;;;5102503;28;20497;-71
2022/06/10 11:20:25;;;;;;;9.15;5.95;;;;;;;;;;5091033;28;20031;-71
2022/06/10 11:23:09;;;;;;;7.25;4.72;;;;;;;;;;5103122;28;20058;-70
2022/06/10 11:25:35;;;;;;;5.93;4.50;;;;;;;;;;5094910;28;20499;-70
2022/06/10 11:28:03;;;;;;;6.80;4.00;;;;;;;;;;5097846;28;20047;-70
2022/06/10 11:30:34;;;;;;;9.18;4.60;;;;;;;;;;5104517;28;20389;-71
2022/06/10 11:33:19;;;;;;;8.95;5.22;;;;;;;;;;5114295;28;20543;-70
2022/06/10 11:36:06;;;;;;;9.80;6.05;;;;;;;;;;5088165;28;20039;-71
2022/06/10 11:38:33;;;;;;;11.00;8.50;;;;;;;;;;5095030;28;20086;-71
2022/06/10 11:41:01;;;;;;;12.05;10.43;;;;;;;;;;5095230;28;20510;-70
2022/06/10 11:43:32;;;;;;;14.77;10.10;;;;;;;;;;5091906;28;20043;-72
2022/06/10 11:46:05;;;;;;;12.75;9.40;;;;;;;;;;5092224;28;20040;-72
2022/06/10 11:48:36;;;;;;;12.30;8.80;;;;;;;;;;5092882;28;20031;-72
2022/06/10 11:51:06;;;;;;;11.27;8.43;;;;;;;;;;5097384;28;20508;-73
2022/06/10 11:53:38;;;;;;;10.70;8.80;;;;;;;;;;5103488;28;20035;-73
2022/06/10 12:01:46;;;;;;;19.27;15.60;;;;;;;;;;5094229;28;20062;-73
2022/06/10 12:04:15;;;;;;;21.85;18.10;;;;;;;;;;5093502;28;20103;-73
2022/06/10 12:06:48;;;;;;;25.20;19.33;;;;;;;;;;5093436;28;20132;-72
2022/06/10 12:09:25;;;;;;;23.02;15.73;;;;;;;;;;5092263;28;20100;-73
2022/06/10 12:11:56;;;;;;;20.88;14.63;;;;;;;;;;5093489;28;20051;-72
2022/06/10 12:14:36;;;;;;;29.40;16.38;;;;;;;;;;5073652;28;20028;-73
2022/06/10 12:17:20;;;;;;;24.83;15.70;;;;;;;;;;5082865;28;20097;-73
2022/06/10 12:19:53;;;;;;;34.90;17.58;;;;;;;;;;5094636;28;20825;-72
2022/06/10 12:22:21;;;;;;;23.50;16.42;;;;;;;;;;5092478;28;20059;-72
2022/06/10 12:24:48;;;;;;;22.85;14.93;;;;;;;;;;5094220;28;20044;-72
2022/06/10 12:27:16;;;;;;;16.77;11.57;;;;;;;;;;5094363;28;20570;-72
2022/06/10 12:29:46;;;;;;;16.20;9.55;;;;;;;;;;5093501;28;20169;-72
2022/06/10 12:32:18;;;;;;;13.90;7.70;;;;;;;;;;5094487;28;20031;-72
2022/06/10 12:34:50;;;;;;;11.25;7.03;;;;;;;;;;5095272;28;20108;-72
2022/06/10 12:37:37;;;;;;;14.52;5.50;;;;;;;;;;5091784;28;20054;-73
2022/06/10 12:40:03;;;;;;;10.23;4.38;;;;;;;;;;5087876;28;20050;-72
2022/06/10 12:42:38;;;;;;;10.35;5.80;;;;;;;;;;5092951;28;20038;-73
2022/06/10 12:45:10;;;;;;;15.13;9.05;;;;;;;;;;5091414;28;20043;-73
2022/06/10 12:47:38;;;;;;;11.32;6.15;;;;;;;;;;5084391;28;20109;-72
2022/06/10 12:50:16;;;;;;;7.60;4.32;;;;;;;;;;5104514;28;20036;-73
2022/06/10 12:52:57;;;;;;;7.55;3.55;;;;;;;;;;5094062;28;20502;-73
2022/06/10 12:55:24;;;;;;;;;;;;;;;;;;5103626;28;20039;-72
2022/06/10 12:57:50;;;;;;;6.63;2.50;;;;;;;;;;5093546;28;19911;-71
2022/06/10 13:00:19;;;;;;;2.90;1.60;;;;;;;;;;5094464;28;20035;-72
2022/06/10 13:02:46;;;;;;;4.63;2.00;;;;;;;;;;5111081;28;20036;-72
2022/06/10 13:05:18;;;;;;;6.95;2.00;;;;;;;;;;5094500;28;20120;-71
2022/06/10 13:07:44;;;;;;;4.97;1.67;;;;;;;;;;5094278;28;20039;-71
2022/06/10 13:10:29;;;;;;;5.00;2.30;;;;;;;;;;5094336;28;20123;-71
2022/06/10 13:12:59;;;;;;;5.32;1.60;;;;;;;;;;5093984;28;20028;-71
2022/06/10 13:15:28;;;;;;;4.63;2.00;;;;;;;;;;5094258;28;20032;-72
2022/06/10 13:18:06;;;;;;;8.13;2.55;;;;;;;;;;5094290;28;20089;-71
2022/06/10 13:20:38;;;;;;;2.88;1.60;;;;;;;;;;5074354;28;20090;-71
2022/06/10 13:23:12;;;;;;;4.75;1.13;;;;;;;;;;5073954;28;20032;-71
2022/06/10 13:25:39;;;;;;;3.67;1.42;;;;;;;;;;5073957;28;20123;-71
2022/06/10 13:28:26;;;;;;;5.22;2.38;;;;;;;;;;5073927;28;20090;-71
2022/06/10 13:31:01;;;;;;;4.72;1.60;;;;;;;;;;5064661;28;20044;-71
2022/06/10 13:33:28;;;;;;;3.13;1.00;;;;;;;;;;5096279;28;20031;-71
2022/06/10 13:35:55;;;;;;;2.30;1.10;;;;;;;;;;5093830;28;20032;-71
2022/06/10 13:38:36;;;;;;;3.10;1.23;;;;;;;;;;5094003;28;20036;-71
2022/06/10 13:43:54;;;;;;;2.95;1.00;;;;;;;;;;5104586;28;20101;-71
2022/06/10 13:46:25;;;;;;;4.57;1.92;;;;;;;;;;5098536;28;20036;-71
2022/06/10 13:49:06;;;;;;;2.70;1.48;;;;;;;;;;5099789;28;20044;-71
2022/06/10 13:51:49;;;;;;;2.58;1.10;;;;;;;;;;5097538;28;20046;-71
2022/06/10 13:54:24;;;;;;;2.90;1.33;;;;;;;;;;5077361;28;20068;-71
2022/06/10 13:56:51;;;;;;;2.42;0.95;;;;;;;;;;5093299;28;20063;-72
2022/06/10 13:59:32;;;;;;;2.25;1.25;;;;;;;;;;5102783;28;20043;-72
2022/06/10 14:02:13;;;;;;;3.63;0.90;;;;;;;;;;5116420;28;20077;-72
2022/06/10 14:04:41;;;;;;;1.17;1.08;;;;;;;;;;5109219;28;20035;-72
2022/06/10 14:07:14;;;;;;;8.48;1.77;;;;;;;;;;5094377;28;20032;-72
2022/06/10 14:09:40;;;;;;;6.53;2.20;;;;;;;;;;5097724;28;20054;-72
2022/06/10 14:12:07;;;;;;;3.63;1.40;;;;;;;;;;5096542;28;20031;-72
2022/06/10 14:14:34;;;;;;;4.35;1.30;;;;;;;;;;5096738;28;20052;-72
2022/06/10 14:17:10;;;;;;;6.32;1.50;;;;;;;;;;5096470;28;20126;-72
2022/06/10 14:19:42;;;;;;;6.20;1.20;;;;;;;;;;5100194;28;20040;-73
2022/06/10 14:22:10;;;;;;;6.15;1.25;;;;;;;;;;5096126;28;20486;-72
2022/06/10 14:24:36;;;;;;;4.32;1.10;;;;;;;;;;5096846;28;20088;-72
2022/06/10 14:27:14;;;;;;;6.00;1.45;;;;;;;;;;5098847;28;20040;-72
2022/06/10 14:29:40;;;;;;;2.45;1.13;;;;;;;;;;5088964;28;20045;-71
2022/06/10 14:32:12;;;;;;;6.60;1.30;;;;;;;;;;5105034;28;20032;-72
2022/06/10 14:34:43;;;;;;;6.35;1.75;;;;;;;;;;5094885;28;20111;-72
2022/06/10 14:37:23;;;;;;;3.80;1.00;;;;;;;;;;5096226;28;20040;-72
2022/06/10 14:40:22;;;;;;;3.63;1.17;;;;;;;;;;5096299;28;20036;-72
2022/06/10 14:43:03;;;;;;;4.35;1.00;;;;;;;;;;5059728;28;20098;-72
2022/06/10 14:45:37;;;;;;;5.68;1.60;;;;;;;;;;5092982;28;20185;-72
2022/06/10 14:48:06;;;;;;;2.63;1.40;;;;;;;;;;5097957;28;20047;-72
2022/06/10 14:50:33;;;;;;;2.60;1.15;;;;;;;;;;5104141;28;20036;-72
2022/06/10 14:53:00;;;;;;;5.05;1.65;;;;;;;;;;5104455;28;20028;-72
2022/06/10 14:55:29;;;;;;;4.13;1.70;;;;;;;;;;5117335;28;20088;-72
2022/06/10 14:57:56;;;;;;;6.38;3.03;;;;;;;;;;5103500;28;20050;-72
2022/06/10 15:00:23;;;;;;;6.22;2.85;;;;;;;;;;5117069;28;20143;-72
2022/06/10 15:02:49;;;;;;;8.40;1.98;;;;;;;;;;5102139;28;20062;-72
2022/06/10 15:08:05;;;;;;;4.25;1.52;;;;;;;;;;5106710;28;20065;-72
2022/06/10 15:10:33;;;;;;;4.38;1.60;;;;;;;;;;5099618;28;20044;-72
2022/06/10 15:13:00;;;;;;;5.88;2.63;;;;;;;;;;5096299;28;20089;-72
2022/06/10 15:15:26;;;;;;;7.45;2.58;;;;;;;;;;5095772;28;20068;-72
2022/06/10 15:17:52;;;;;;;5.63;2.17;;;;;;;;;;5096026;28;20040;-72
2022/06/10 15:20:18;;;;;;;2.42;1.48;;;;;;;;;;5097685;28;20039;-71
2022/06/10 15:22:47;;;;;;;4.43;1.27;;;;;;;;;;5097452;28;20128;-71
2022/06/10 15:25:20;;;;;;;3.67;1.45;;;;;;;;;;5083789;28;20113;-72
2022/06/10 15:27:47;;;;;;;7.18;1.40;;;;;;;;;;5090833;28;20057;-72
2022/06/10 15:30:17;;;;;;;3.08;1.13;;;;;;;;;;5091929;28;20119;-71
2022/06/10 15:32:43;;;;;;;;;;;;;;;;;;5086852;28;20032;-71
2022/06/10 15:40:57;;;;;;;3.13;1.25;;;;;;;;;;5091741;28;20058;-71
2022/06/10 15:43:24;;;;;;;5.93;2.10;;;;;;;;;;5093282;28;20116;-72
2022/06/10 15:45:50;;;;;;;2.95;1.35;;;;;;;;;;5092814;28;20051;-71
2022/06/10 15:48:16;;;;;;;4.55;1.35;;;;;;;;;;5094412;28;20043;-72
2022/06/10 15:50:52;;;;;;;5.13;1.48;;;;;;;;;;5093844;28;20070;-71
2022/06/10 15:53:20;;;;;;;5.57;1.52;;;;;;;;;;5094329;28;20036;-71
2022/06/10 15:58:33;;;;;;;3.08;2.00;;;;;;;;;;5092003;28;20062;-71
2022/06/10 16:01:01;;;;;;;5.55;2.00;;;;;;;;;;5094402;28;20069;-71
2022/06/10 16:03:27;;;;;;;5.50;1.85;;;;;;;;;;5091943;28;20558;-72
2022/06/10 16:05:53;;;;;;;4.10;1.80;;;;;;;;;;5094076;28;20040;-72
2022/06/10 16:08:21;;;;;;;3.55;1.73;;;;;;;;;;5093707;28;20044;-72
2022/06/10 16:10:49;;;;;;;3.65;1.67;;;;;;;;;;5091480;28;20059;-72
2022/06/10 16:13:17;;;;;;;4.70;1.40;;;;;;;;;;5094541;28;20044;-72
2022/06/10 16:15:51;;;;;;;4.93;1.25;;;;;;;;;;5093537;28;20036;-71
2022/06/10 16:18:25;;;;;;;2.50;1.52;;;;;;;;;;5094393;28;20046;-72
2022/06/10 16:20:52;;;;;;;3.40;1.58;;;;;;;;;;5091411;28;20036;-72
2022/06/10 16:23:20;;;;;;;6.13;1.45;;;;;;;;;;5093148;28;20352;-72
2022/06/10 16:25:48;;;;;;;2.58;1.35;;;;;;;;;;5090247;28;20050;-72
2022/06/10 16:28:21;;;;;;;5.05;1.40;;;;;;;;;;5094045;28;20194;-71
2022/06/10 16:30:47;;;;;;;4.53;2.05;;;;;;;;;;5092836;28;20074;-72
2022/06/10 16:33:14;;;;;;;7.70;1.92;;;;;;;;;;5084083;28;20048;-71
2022/06/10 16:35:40;;;;;;;5.32;1.90;;;;;;;;;;5081312;28;20111;-72
2022/06/10 16:38:12;;;;;;;6.40;1.80;;;;;;;;;;5093194;28;20059;-72
2022/06/10 16:40:38;;;;;;;4.55;2.45;;;;;;;;;;5091921;28;20098;-71
2022/06/10 16:43:04;;;;;;;4.30;2.00;;;;;;;;;;5093888;28;20039;-71
2022/06/10 16:45:34;;;;;;;4.47;1.88;;;;;;;;;;5093324;28;20036;-71
2022/06/10 16:48:00;;;;;;;3.00;1.90;;;;;;;;;;5093939;28;20043;-71
2022/06/10 16:50:27;;;;;;;2.83;1.60;;;;;;;;;;5093572;28;20036;-71
2022/06/10 16:52:53;;;;;;;3.75;1.73;;;;;;;;;;5094157;28;20130;-71
2022/06/10 16:55:19;;;;;;;7.63;2.03;;;;;;;;;;5093651;28;20040;-71
2022/06/10 16:57:51;;;;;;;7.30;2.20;;;;;;;;;;5093915;28;20117;-71
2022/06/10 17:00:22;;;;;;;2.47;1.52;;;;;;;;;;5093009;28;20478;-71
2022/06/10 17:02:53;;;;;;;5.63;1.77;;;;;;;;;;5093872;28;20122;-71
2022/06/10 17:05:22;;;;;;;4.40;1.63;;;;;;;;;;5094285;28;20058;-70
2022/06/10 17:07:48;;;;;;;4.00;1.80;;;;;;;;;;5093551;28;20135;-71
2022/06/10 17:10:14;;;;;;;5.20;1.60;;;;;;;;;;5094258;28;20032;-71
2022/06/10 17:12:43;;;;;;;5.55;2.25;;;;;;;;;;5094062;28;20035;-71
2022/06/10 17:15:20;;;;;;;3.78;1.88;;;;;;;;;;5093169;28;20116;-71
2022/06/10 17:17:48;;;;;;;3.55;1.60;;;;;;;;;;5093703;28;20051;-71
2022/06/10 17:20:22;;;;;;;5.18;2.00;;;;;;;;;;5096831;28;20036;-71
2022/06/10 17:22:48;;;;;;;6.18;1.83;;;;;;;;;;5097821;28;20132;-71
2022/06/10 17:25:15;;;;;;;5.25;2.03;;;;;;;;;;5097539;28;20096;-71
2022/06/10 17:27:41;;;;;;;5.10;1.25;;;;;;;;;;5097917;28;20130;-71
2022/06/10 17:30:09;;;;;;;23.83;20.25;;;;;;;;;;5096434;28;20036;-70
2022/06/10 17:32:40;;;;;;;3.50;2.03;;;;;;;;;;5097087;28;20040;-70
2022/06/10 17:35:13;;;;;;;5.03;2.03;;;;;;;;;;5097775;28;20047;-70
2022/06/10 17:37:39;;;;;;;4.10;1.48;;;;;;;;;;5096971;28;20051;-70
2022/06/10 17:40:06;;;;;;;4.30;1.58;;;;;;;;;;5097511;28;20032;-70
2022/06/10 17:42:38;;;;;;;3.35;1.30;;;;;;;;;;5096922;28;20040;-70
2022/06/10 17:45:20;;;;;;;5.80;1.70;;;;;;;;;;5097108;28;20062;-71
2022/06/10 17:47:46;;;;;;;2.75;1.20;;;;;;;;;;5097293;28;20044;-70
2022/06/10 17:50:16;;;;;;;5.60;1.40;;;;;;;;;;5097234;28;20038;-70
2022/06/10 17:52:43;;;;;;;3.20;1.40;;;;;;;;;;5097052;28;20036;-70
2022/06/10 17:55:10;;;;;;;3.20;1.20;;;;;;;;;;5097078;28;20043;-70
2022/06/10 17:57:42;;;;;;;3.15;1.08;;;;;;;;;;5097235;28;20105;-70
2022/06/10 18:00:15;;;;;;;4.38;1.13;;;;;;;;;;5096761;28;20093;-70
2022/06/10 18:02:42;;;;;;;2.92;1.20;;;;;;;;;;5097636;28;20043;-70
2022/06/10 18:05:18;;;;;;;9.57;6.70;;;;;;;;;;5096895;28;20039;-70
2022/06/10 18:07:44;;;;;;;4.68;1.77;;;;;;;;;;5097380;28;20042;-70
2022/06/10 18:10:10;;;;;;;2.50;1.20;;;;;;;;;;5096223;28;20418;-70
2022/06/10 18:12:42;;;;;;;2.38;1.20;;;;;;;;;;5096882;28;20059;-70
2022/06/10 18:15:09;;;;;;;3.35;1.40;;;;;;;;;;5096872;28;20040;-70
2022/06/10 18:17:37;;;;;;;4.63;1.25;;;;;;;;;;5096881;28;20136;-69
2022/06/10 18:20:03;;;;;;;3.42;1.15;;;;;;;;;;5096552;28;20062;-72
2022/06/10 18:22:29;;;;;;;3.78;1.33;;;;;;;;;;5096812;28;20039;-72
2022/06/10 18:24:55;;;;;;;4.80;1.50;;;;;;;;;;5097115;28;20080;-73
2022/06/10 18:27:29;;;;;;;4.95;1.77;;;;;;;;;;5097046;28;20123;-73
2022/06/10 18:29:56;;;;;;;3.75;1.20;;;;;;;;;;5095016;28;20434;-73
2022/06/10 18:32:28;;;;;;;4.70;1.45;;;;;;;;;;5097245;28;20039;-73
2022/06/10 18:34:55;;;;;;;3.55;1.25;;;;;;;;;;5096671;28;20486;-73
2022/06/10 18:37:22;;;;;;;3.50;1.13;;;;;;;;;;5095932;28;20040;-71
2022/06/10 18:39:48;;;;;;;3.05;0.90;;;;;;;;;;5096242;28;20063;-72
2022/06/10 18:42:18;;;;;;;3.08;1.13;;;;;;;;;;5096304;28;20344;-72
2022/06/10 18:44:45;;;;;;;9.75;1.48;;;;;;;;;;5095894;28;20434;-70
2022/06/10 18:47:15;;;;;;;9.70;3.20;;;;;;;;;;5096739;28;20116;-71
2022/06/10 18:49:41;;;;;;;1.45;1.10;;;;;;;;;;5095734;28;20083;-71
2022/06/10 18:52:07;;;;;;;6.18;1.50;;;;;;;;;;5096586;28;20040;-72
2022/06/10 18:54:36;;;;;;;6.45;1.58;;;;;;;;;;5096374;28;20109;-71
2022/06/10 18:57:04;;;;;;;5.45;1.17;;;;;;;;;;5095815;28;20032;-72
2022/06/10 18:59:30;;;;;;;4.55;1.10;;;;;;;;;;5095711;28;20032;-71
2022/06/10 19:02:01;;;;;;;3.72;1.10;;;;;;;;;;5096411;28;20060;-71
2022/06/10 19:04:30;;;;;;;2.75;1.30;;;;;;;;;;5096075;28;20118;-71
2022/06/10 19:06:57;;;;;;;5.50;1.35;;;;;;;;;;5095973;28;20170;-71
2022/06/10 19:09:25;;;;;;;5.25;1.25;;;;;;;;;;5096215;28;20040;-71
2022/06/10 19:11:52;;;;;;;7.00;1.15;;;;;;;;;;5095687;28;20036;-71
2022/06/10 19:14:19;;;;;;;4.75;1.65;;;;;;;;;;5095469;28;20032;-71
2022/06/10 19:16:47;;;;;;;7.60;1.38;;;;;;;;;;5095294;28;20488;-71
2022/06/10 19:19:21;;;;;;;9.25;1.92;;;;;;;;;;5095623;28;20052;-71
2022/06/10 19:21:48;;;;;;;9.30;2.08;;;;;;;;;;5095433;28;20039;-71
2022/06/10 19:24:16;;;;;;;8.75;1.67;;;;;;;;;;5095560;28;20032;-71
2022/06/10 19:26:43;;;;;;;6.07;1.50;;;;;;;;;;5095585;28;20420;-71
2022/06/10 19:29:10;;;;;;;5.93;1.70;;;;;;;;;;5094739;28;20065;-71
2022/06/10 19:31:43;;;;;;;7.65;1.70;;;;;;;;;;5095817;28;20035;-71
2022/06/10 19:34:15;;;;;;;6.60;1.83;;;;;;;;;;5095408;28;20085;-71
2022/06/10 19:36:44;;;;;;;4.35;1.40;;;;;;;;;;5095551;28;20036;-71
2022/06/10 19:39:14;;;;;;;6.28;1.60;;;;;;;;;;5095264;28;20074;-71
2022/06/10 19:41:40;;;;;;;4.93;1.80;;;;;;;;;;5094047;28;20525;-71
2022/06/10 19:46:51;;;;;;;4.07;1.42;;;;;;;;;;5094276;28;20061;-71
2022/06/10 19:49:23;;;;;;;5.53;1.77;;;;;;;;;;5094745;28;20084;-71
2022/06/10 19:51:50;;;;;;;4.70;1.63;;;;;;;;;;5093677;28;20043;-71
2022/06/10 19:54:16;;;;;;;11.27;1.83;;;;;;;;;;5094270;28;20028;-71
2022/06/10 19:56:42;;;;;;;6.10;1.38;;;;;;;;;;5094830;28;20487;-71
2022/06/10 19:59:09;;;;;;;5.30;1.38;;;;;;;;;;5093882;28;20056;-71
2022/06/10 20:01:35;;;;;;;10.35;1.45;;;;;;;;;;5094951;28;20121;-72
2022/06/10 20:04:04;;;;;;;8.95;1.77;;;;;;;;;;5094639;28;20190;-72
2022/06/10 20:06:30;;;;;;;6.32;1.50;;;;;;;;;;5094058;28;20095;-72
2022/06/10 20:08:57;;;;;;;3.50;1.52;;;;;;;;;;5094829;28;20028;-72
2022/06/10 20:11:23;;;;;;;6.43;1.67;;;;;;;;;;5094549;28;20038;-72
2022/06/10 20:13:50;;;;;;;7.10;1.55;;;;;;;;;;5094293;28;20538;-72
2022/06/10 20:16:18;;;;;;;6.28;1.50;;;;;;;;;;5094134;28;20551;-71
2022/06/10 20:18:47;;;;;;;2.97;1.60;;;;;;;;;;5094350;28;20043;-71
2022/06/10 20:21:14;;;;;;;6.82;1.52;;;;;;;;;;5093725;28;20062;-72
2022/06/10 20:23:42;;;;;;;5.53;1.50;;;;;;;;;;5094359;28;20474;-72
2022/06/10 20:26:09;;;;;;;5.38;1.42;;;;;;;;;;5094417;28;20043;-71
2022/06/10 20:28:36;;;;;;;11.25;2.42;;;;;;;;;;5093162;28;20044;-72
2022/06/10 20:31:08;;;;;;;5.28;1.70;;;;;;;;;;5094158;28;20032;-72
2022/06/10 20:33:34;;;;;;;3.83;1.38;;;;;;;;;;5094712;28;20043;-72
2022/06/10 20:36:03;;;;;;;7.78;1.40;;;;;;;;;;5093704;28;20040;-71
2022/06/10 20:38:31;;;;;;;3.72;1.42;;;;;;;;;;5094092;28;20043;-72
2022/06/10 20:40:57;;;;;;;3.72;1.30;;;;;;;;;;5093797;28;20124;-71
2022/06/10 20:43:23;;;;;;;3.95;1.60;;;;;;;;;;5093887;28;20170;-71
2022/06/10 20:45:54;;;;;;;2.10;1.10;;;;;;;;;;5092732;28;20052;-71
2022/06/10 20:48:21;;;;;;;;;;;;;;;;;;5094111;28;20039;-71
2022/06/10 20:50:47;;;;;;;5.50;1.75;;;;;;;;;;5093993;28;19930;-71
2022/06/10 20:53:13;;;;;;;3.83;1.58;;;;;;;;;;5093495;28;20113;-71
2022/06/10 20:55:41;;;;;;;3.20;1.30;;;;;;;;;;5093557;28;20490;-71
2022/06/10 20:58:18;;;;;;;3.63;1.52;;;;;;;;;;5093029;28;20101;-71
2022/06/10 21:00:45;;;;;;;5.30;1.67;;;;;;;;;;5091763;28;20146;-72
2022/06/10 21:03:22;;;;;;;5.40;1.40;;;;;;;;;;5093580;28;20051;-72
2022/06/10 21:08:33;;;;;;;6.65;1.38;;;;;;;;;;5092624;28;20111;-72
2022/06/10 21:10:59;;;;;;;2.88;1.20;;;;;;;;;;5094292;28;20038;-72
2022/06/10 21:13:26;;;;;;;3.47;2.10;;;;;;;;;;5093708;28;20040;-72
2022/06/10 21:15:59;;;;;;;3.53;1.52;;;;;;;;;;5091342;28;20382;-77
2022/06/10 21:18:36;;;;;;;6.00;1.63;;;;;;;;;;5091898;28;20040;-71
2022/06/10 21:21:21;;;;;;;2.80;1.05;;;;;;;;;;5097973;28;20032;-72
2022/06/10 21:23:48;;;;;;;1.73;1.10;;;;;;;;;;5106088;28;20080;-73
2022/06/10 21:26:16;;;;;;;6.05;1.40;;;;;;;;;;5099918;28;20059;-73
2022/06/10 21:28:43;;;;;;;3.03;1.38;;;;;;;;;;5104088;28;20035;-73
2022/06/10 21:31:15;;;;;;;5.05;1.40;;;;;;;;;;5093542;28;20032;-72
2022/06/10 21:33:44;;;;;;;7.20;1.63;;;;;;;;;;5091945;28;20031;-72
2022/06/10 21:36:18;;;;;;;6.03;1.60;;;;;;;;;;5088913;28;20075;-72
2022/06/10 21:38:46;;;;;;;5.35;1.20;;;;;;;;;;5102857;28;20043;-72
2022/06/10 21:41:14;;;;;;;2.47;1.60;;;;;;;;;;5099562;28;20032;-73
2022/06/10 21:46:25;;;;;;;1.98;1.13;;;;;;;;;;5093035;28;20547;-73
2022/06/10 21:48:51;;;;;;;2.55;1.00;;;;;;;;;;5092664;28;20549;-73
2022/06/10 21:51:18;;;;;;;3.53;1.50;;;;;;;;;;5094706;28;20061;-73
2022/06/10 21:53:49;;;;;;;2.85;1.35;;;;;;;;;;5102491;28;20042;-73
2022/06/10 21:56:21;;;;;;;4.40;1.33;;;;;;;;;;5096211;28;20036;-73
2022/06/10 21:58:48;;;;;;;3.30;1.50;;;;;;;;;;5092899;28;20489;-73
2022/06/10 22:01:17;;;;;;;3.95;1.20;;;;;;;;;;5092996;28;20043;-73
2022/06/10 22:03:49;;;;;;;2.85;1.23;;;;;;;;;;5098790;28;20028;-73
2022/06/10 22:06:18;;;;;;;2.20;1.17;;;;;;;;;;5117571;28;20042;-73
2022/06/10 22:08:45;;;;;;;3.05;1.10;;;;;;;;;;5100972;28;20046;-73
2022/06/10 22:11:17;;;;;;;4.05;1.33;;;;;;;;;;5097985;28;20043;-73
2022/06/10 22:13:43;;;;;;;5.38;1.48;;;;;;;;;;5097494;28;20082;-73
2022/06/10 22:16:24;;;;;;;3.15;1.25;;;;;;;;;;5098441;28;20032;-73
2022/06/10 22:18:50;;;;;;;2.53;1.35;;;;;;;;;;5105095;28;20075;-73
2022/06/10 22:21:16;;;;;;;2.45;1.15;;;;;;;;;;5096800;28;20065;-73
2022/06/10 22:23:43;;;;;;;3.05;1.13;;;;;;;;;;5103857;28;20076;-73
2022/06/10 22:26:10;;;;;;;4.07;1.70;;;;;;;;;;5114802;28;20546;-73
2022/06/10 22:28:37;;;;;;;4.57;1.40;;;;;;;;;;5102114;28;20040;-73
2022/06/10 22:31:04;;;;;;;3.00;1.20;;;;;;;;;;5103634;28;20115;-73
2022/06/10 22:33:46;;;;;;;5.40;1.50;;;;;;;;;;5101487;28;20066;-73
2022/06/10 22:36:13;;;;;;;2.58;1.48;;;;;;;;;;5096710;28;20036;-71
2022/06/10 22:38:41;;;;;;;4.85;1.50;;;;;;;;;;5096409;28;20051;-72
2022/06/10 22:41:19;;;;;;;2.63;1.30;;;;;;;;;;5096212;28;20169;-73
2022/06/10 22:43:45;;;;;;;3.22;1.35;;;;;;;;;;5096904;28;20043;-73
2022/06/10 22:46:11;;;;;;;3.17;1.30;;;;;;;;;;5097284;28;20055;-73